Time;durP1;ratioP1;P1;durP2;ratioP2;P2;SDS_P1;SDS_P2;PMS_P1;PMS_P2;Temp;Humidity;BMP_temperature;BMP_pressure;BME280_temperature;BME280_humidity;BME280_pressure;Samples;Min_cycle;Max_cycle;Signal;HPM_P1;HPM_P2
2021/04/14 00:00:41;;;;;;;3.40;1.60;;;;;;;;;;5014257;28;20207;-83
2021/04/14 00:03:12;;;;;;;2.97;1.60;;;;;;;;;;5014613;28;20249;-84
2021/04/14 00:05:40;;;;;;;4.35;1.30;;;;;;;;;;5014344;28;20234;-83
2021/04/14 00:08:09;;;;;;;2.40;1.20;;;;;;;;;;5014418;28;20176;-83
2021/04/14 00:10:38;;;;;;;3.05;1.55;;;;;;;;;;5023661;28;20240;-83
2021/04/14 00:13:08;;;;;;;4.68;2.28;;;;;;;;;;5026602;28;20642;-83
2021/04/14 00:15:40;;;;;;;1.50;1.30;;;;;;;;;;4994762;28;20184;-83
2021/04/14 00:18:07;;;;;;;3.92;1.75;;;;;;;;;;4994733;28;20182;-83
2021/04/14 00:20:37;;;;;;;2.33;1.40;;;;;;;;;;5014131;28;20202;-83
2021/04/14 00:23:06;;;;;;;2.08;1.88;;;;;;;;;;5014631;28;20611;-83
2021/04/14 00:25:39;;;;;;;1.77;1.42;;;;;;;;;;5014055;28;20209;-83
2021/04/14 00:28:06;;;;;;;2.20;1.70;;;;;;;;;;5014371;28;20230;-83
2021/04/14 00:30:34;;;;;;;2.28;1.63;;;;;;;;;;5017372;28;20613;-83
2021/04/14 00:33:02;;;;;;;2.55;1.63;;;;;;;;;;5025584;28;20215;-83
2021/04/14 00:35:30;;;;;;;1.63;1.52;;;;;;;;;;5027517;28;20183;-83
2021/04/14 00:37:58;;;;;;;4.05;2.08;;;;;;;;;;4992460;28;20210;-83
2021/04/14 00:40:29;;;;;;;2.35;2.15;;;;;;;;;;4974811;28;20184;-83
2021/04/14 00:42:57;;;;;;;2.35;1.70;;;;;;;;;;4974744;28;20240;-82
2021/04/14 00:45:25;;;;;;;2.05;1.95;;;;;;;;;;4974273;28;20220;-82
2021/04/14 00:47:52;;;;;;;4.60;2.35;;;;;;;;;;4974997;28;20246;-82
2021/04/14 00:50:25;;;;;;;1.98;1.73;;;;;;;;;;4974739;28;20188;-82
2021/04/14 00:52:52;;;;;;;2.83;2.45;;;;;;;;;;4992959;28;20254;-83
2021/04/14 00:55:25;;;;;;;2.83;2.33;;;;;;;;;;4974548;28;20188;-83
2021/04/14 00:57:51;;;;;;;3.13;1.50;;;;;;;;;;4974601;28;20702;-83
2021/04/14 01:00:29;;;;;;;6.18;2.25;;;;;;;;;;4974697;28;20192;-83
2021/04/14 01:02:56;;;;;;;1.77;1.48;;;;;;;;;;4974203;28;20851;-83
2021/04/14 01:05:27;;;;;;;1.77;1.60;;;;;;;;;;4974245;28;20201;-83
2021/04/14 01:07:54;;;;;;;4.60;1.58;;;;;;;;;;4974657;28;20183;-83
2021/04/14 01:10:23;;;;;;;3.13;1.55;;;;;;;;;;4974804;28;20185;-83
2021/04/14 01:12:51;;;;;;;3.25;1.50;;;;;;;;;;4974201;28;20735;-83
2021/04/14 01:15:22;;;;;;;2.80;1.52;;;;;;;;;;4974274;28;20191;-82
2021/04/14 01:17:49;;;;;;;2.83;2.08;;;;;;;;;;4974201;28;20189;-83
2021/04/14 01:20:17;;;;;;;4.07;2.38;;;;;;;;;;4985908;28;20204;-83
2021/04/14 01:22:45;;;;;;;1.40;1.30;;;;;;;;;;4993390;28;20827;-83
2021/04/14 01:25:16;;;;;;;1.95;1.73;;;;;;;;;;4993599;28;20257;-82
2021/04/14 01:27:43;;;;;;;2.30;1.80;;;;;;;;;;4993870;28;20665;-83
2021/04/14 01:30:14;;;;;;;1.92;1.77;;;;;;;;;;4993445;28;20195;-82
2021/04/14 01:32:41;;;;;;;2.33;1.80;;;;;;;;;;4993474;28;20274;-83
2021/04/14 01:35:12;;;;;;;2.15;1.95;;;;;;;;;;4991882;28;20211;-82
2021/04/14 01:37:39;;;;;;;1.65;1.55;;;;;;;;;;4993540;28;20327;-83
2021/04/14 01:40:09;;;;;;;2.97;1.70;;;;;;;;;;5030472;28;20230;-82
2021/04/14 01:42:36;;;;;;;3.30;1.95;;;;;;;;;;4993350;28;20215;-83
2021/04/14 01:45:04;;;;;;;4.10;2.53;;;;;;;;;;4993133;28;20554;-83
2021/04/14 01:47:31;;;;;;;2.35;2.00;;;;;;;;;;5001957;28;20555;-82
2021/04/14 01:49:58;;;;;;;3.17;1.70;;;;;;;;;;5026266;28;20189;-83
2021/04/14 01:52:25;;;;;;;7.32;1.45;;;;;;;;;;5030876;28;20283;-83
2021/04/14 01:54:52;;;;;;;1.92;1.65;;;;;;;;;;5037423;28;20183;-83
2021/04/14 01:57:20;;;;;;;2.05;1.63;;;;;;;;;;5039076;28;20198;-82
2021/04/14 01:59:47;;;;;;;3.10;1.80;;;;;;;;;;5039185;28;20198;-82
2021/04/14 02:02:14;;;;;;;4.13;1.88;;;;;;;;;;5039102;28;20272;-83
2021/04/14 02:04:40;;;;;;;2.00;1.80;;;;;;;;;;5039171;28;20206;-82
2021/04/14 02:07:09;;;;;;;3.75;1.77;;;;;;;;;;5039018;28;20183;-82
2021/04/14 02:09:37;;;;;;;2.70;1.80;;;;;;;;;;5020011;28;20244;-83
2021/04/14 02:12:05;;;;;;;1.50;1.33;;;;;;;;;;5019104;28;20233;-83
2021/04/14 02:14:33;;;;;;;2.63;2.22;;;;;;;;;;5019192;28;20187;-82
2021/04/14 02:17:01;;;;;;;3.28;1.67;;;;;;;;;;5019193;28;20199;-82
2021/04/14 02:19:28;;;;;;;1.67;1.58;;;;;;;;;;5030150;28;20219;-83
2021/04/14 02:21:56;;;;;;;1.52;1.40;;;;;;;;;;5019056;28;20230;-82
2021/04/14 02:24:23;;;;;;;3.33;1.83;;;;;;;;;;5019615;28;20211;-83
2021/04/14 02:26:49;;;;;;;5.55;1.65;;;;;;;;;;5019652;28;20275;-84
2021/04/14 02:29:16;;;;;;;2.92;1.67;;;;;;;;;;5019553;28;20186;-83
2021/04/14 02:31:44;;;;;;;3.42;1.98;;;;;;;;;;5019527;28;20215;-84
2021/04/14 02:34:15;;;;;;;1.67;1.58;;;;;;;;;;5019894;28;20747;-84
2021/04/14 02:36:43;;;;;;;5.10;1.90;;;;;;;;;;5019916;28;20194;-84
2021/04/14 02:39:11;;;;;;;3.13;1.70;;;;;;;;;;5019545;28;20258;-83
2021/04/14 02:41:40;;;;;;;2.85;1.88;;;;;;;;;;5019494;28;20219;-83
2021/04/14 02:44:07;;;;;;;3.15;1.60;;;;;;;;;;5019488;28;20206;-84
2021/04/14 02:46:34;;;;;;;3.30;2.22;;;;;;;;;;5019317;28;20188;-84
2021/04/14 02:49:02;;;;;;;2.47;1.42;;;;;;;;;;5019274;28;20198;-84
2021/04/14 02:51:29;;;;;;;3.75;1.95;;;;;;;;;;5019524;28;20222;-83
2021/04/14 02:53:56;;;;;;;1.73;1.60;;;;;;;;;;5019526;28;20187;-83
2021/04/14 02:56:23;;;;;;;2.63;1.38;;;;;;;;;;5019270;28;20194;-84
2021/04/14 02:58:50;;;;;;;4.50;2.13;;;;;;;;;;5018388;28;20245;-84
2021/04/14 03:01:17;;;;;;;3.63;1.60;;;;;;;;;;5018762;28;20230;-84
2021/04/14 03:03:44;;;;;;;3.05;2.53;;;;;;;;;;5019277;28;20213;-83
2021/04/14 03:06:12;;;;;;;3.92;2.95;;;;;;;;;;5015523;28;20895;-84
2021/04/14 03:08:40;;;;;;;3.30;2.70;;;;;;;;;;5016301;28;20194;-83
2021/04/14 03:11:08;;;;;;;4.15;2.45;;;;;;;;;;5016143;28;20227;-84
2021/04/14 03:13:35;;;;;;;3.30;2.67;;;;;;;;;;5016323;28;20245;-84
2021/04/14 03:16:03;;;;;;;3.65;2.88;;;;;;;;;;5015390;28;20203;-84
2021/04/14 03:18:30;;;;;;;2.35;2.15;;;;;;;;;;5016425;28;20191;-84
2021/04/14 03:20:58;;;;;;;3.13;2.33;;;;;;;;;;5015246;28;20211;-84
2021/04/14 03:23:25;;;;;;;2.20;2.03;;;;;;;;;;5016253;28;20187;-84
2021/04/14 03:25:52;;;;;;;6.53;2.22;;;;;;;;;;5015489;28;20638;-83
2021/04/14 03:28:20;;;;;;;1.95;1.85;;;;;;;;;;5016122;28;20187;-83
2021/04/14 03:30:46;;;;;;;2.88;1.65;;;;;;;;;;5015293;28;20370;-84
2021/04/14 03:33:14;;;;;;;1.77;1.60;;;;;;;;;;5015425;28;20195;-84
2021/04/14 03:35:42;;;;;;;4.28;2.47;;;;;;;;;;5015672;28;20242;-84
2021/04/14 03:38:09;;;;;;;2.38;2.08;;;;;;;;;;5015323;28;20735;-84
2021/04/14 03:40:38;;;;;;;4.93;2.15;;;;;;;;;;5015616;28;20194;-84
2021/04/14 03:43:05;;;;;;;4.82;2.58;;;;;;;;;;5015716;28;20191;-84
2021/04/14 03:45:38;;;;;;;2.85;2.63;;;;;;;;;;5015744;28;20222;-84
2021/04/14 03:48:07;;;;;;;3.00;2.70;;;;;;;;;;5015803;28;20638;-84
2021/04/14 03:50:35;;;;;;;2.92;2.00;;;;;;;;;;5015830;28;20529;-84
2021/04/14 03:53:12;;;;;;;2.10;1.70;;;;;;;;;;5015991;28;20214;-84
2021/04/14 03:55:41;;;;;;;2.00;1.80;;;;;;;;;;5015402;28;20193;-84
2021/04/14 03:58:08;;;;;;;2.05;1.83;;;;;;;;;;5016035;28;20187;-84
2021/04/14 04:00:36;;;;;;;4.60;2.13;;;;;;;;;;5015449;28;20175;-84
2021/04/14 04:03:04;;;;;;;2.40;2.20;;;;;;;;;;5015318;28;20227;-85
2021/04/14 04:05:31;;;;;;;2.95;2.35;;;;;;;;;;5015899;28;20209;-83
2021/04/14 04:07:58;;;;;;;3.83;2.35;;;;;;;;;;5015373;28;20192;-83
2021/04/14 04:10:25;;;;;;;4.00;3.10;;;;;;;;;;5015499;28;20188;-84
2021/04/14 04:12:56;;;;;;;2.70;2.10;;;;;;;;;;5015434;28;20215;-84
2021/04/14 04:15:23;;;;;;;1.98;1.60;;;;;;;;;;5015403;28;20334;-84
2021/04/14 04:17:50;;;;;;;2.75;2.17;;;;;;;;;;5015204;28;20556;-84
2021/04/14 04:20:17;;;;;;;6.30;2.38;;;;;;;;;;5015086;28;20213;-84
2021/04/14 04:22:45;;;;;;;3.65;2.10;;;;;;;;;;5015607;28;20230;-84
2021/04/14 04:25:13;;;;;;;2.25;2.05;;;;;;;;;;5015194;28;20265;-84
2021/04/14 04:27:40;;;;;;;6.05;2.45;;;;;;;;;;5015696;28;20192;-84
2021/04/14 04:30:10;;;;;;;3.20;2.20;;;;;;;;;;5015389;28;20189;-84
2021/04/14 04:32:37;;;;;;;2.67;2.28;;;;;;;;;;5015392;28;20219;-84
2021/04/14 04:35:08;;;;;;;2.83;2.35;;;;;;;;;;5014462;28;20630;-84
2021/04/14 04:37:35;;;;;;;4.25;2.65;;;;;;;;;;5015214;28;20242;-84
2021/04/14 04:40:05;;;;;;;2.22;2.05;;;;;;;;;;5014696;28;20233;-84
2021/04/14 04:42:32;;;;;;;3.65;2.67;;;;;;;;;;5014262;28;20328;-84
2021/04/14 04:45:00;;;;;;;4.88;2.72;;;;;;;;;;5014821;28;20670;-84
2021/04/14 04:47:28;;;;;;;4.80;2.80;;;;;;;;;;5014655;28;20238;-84
2021/04/14 04:49:55;;;;;;;4.53;3.08;;;;;;;;;;5014797;28;20213;-83
2021/04/14 04:52:22;;;;;;;8.40;3.42;;;;;;;;;;5017736;28;20698;-84
2021/04/14 04:54:50;;;;;;;5.88;3.33;;;;;;;;;;5016268;28;20186;-84
2021/04/14 04:57:17;;;;;;;8.13;4.22;;;;;;;;;;5014490;28;20191;-84
2021/04/14 04:59:44;;;;;;;4.70;3.63;;;;;;;;;;5014804;28;20268;-83
2021/04/14 05:02:13;;;;;;;4.30;3.45;;;;;;;;;;5014812;28;20277;-83
2021/04/14 05:04:41;;;;;;;3.22;2.97;;;;;;;;;;5014756;28;20207;-84
2021/04/14 05:07:08;;;;;;;5.07;3.30;;;;;;;;;;5013988;28;20207;-84
2021/04/14 05:09:35;;;;;;;4.75;3.15;;;;;;;;;;5015081;28;20223;-84
2021/04/14 05:12:04;;;;;;;3.85;3.40;;;;;;;;;;5014329;28;20710;-84
2021/04/14 05:14:31;;;;;;;4.03;3.22;;;;;;;;;;5015115;28;20218;-83
2021/04/14 05:16:59;;;;;;;5.93;3.22;;;;;;;;;;5014993;28;20193;-84
2021/04/14 05:19:26;;;;;;;3.60;3.30;;;;;;;;;;5014563;28;20195;-84
2021/04/14 05:21:54;;;;;;;5.53;3.20;;;;;;;;;;5014700;28;20219;-84
2021/04/14 05:24:22;;;;;;;3.47;2.95;;;;;;;;;;5015217;28;20244;-84
2021/04/14 05:26:50;;;;;;;3.70;2.92;;;;;;;;;;5014296;28;20207;-84
2021/04/14 05:29:17;;;;;;;6.30;3.33;;;;;;;;;;5013703;28;20329;-84
2021/04/14 05:31:44;;;;;;;4.20;3.03;;;;;;;;;;5014691;28;20635;-84
2021/04/14 05:34:12;;;;;;;8.25;4.07;;;;;;;;;;5014891;28;20608;-85
2021/04/14 05:36:41;;;;;;;3.50;3.00;;;;;;;;;;5013810;28;20211;-84
2021/04/14 05:39:08;;;;;;;4.47;3.47;;;;;;;;;;5013678;28;20242;-84
2021/04/14 05:41:37;;;;;;;4.72;3.42;;;;;;;;;;5013539;28;20300;-84
2021/04/14 05:44:05;;;;;;;3.63;2.45;;;;;;;;;;5013942;28;20210;-84
2021/04/14 05:46:34;;;;;;;4.35;3.22;;;;;;;;;;5013748;28;20214;-86
2021/04/14 05:49:03;;;;;;;6.72;2.83;;;;;;;;;;5013897;28;20237;-83
2021/04/14 05:51:33;;;;;;;5.18;2.70;;;;;;;;;;5013563;28;20218;-84
2021/04/14 05:54:02;;;;;;;3.95;2.38;;;;;;;;;;5013847;28;20198;-85
2021/04/14 05:56:32;;;;;;;4.03;2.95;;;;;;;;;;5013920;28;20213;-84
2021/04/14 05:59:01;;;;;;;3.90;2.85;;;;;;;;;;5011337;28;20207;-84
2021/04/14 06:01:32;;;;;;;3.78;2.85;;;;;;;;;;5012238;28;20215;-84
2021/04/14 06:03:59;;;;;;;5.70;2.70;;;;;;;;;;5013439;28;20268;-84
2021/04/14 06:06:27;;;;;;;5.47;2.47;;;;;;;;;;5013335;28;20270;-84
2021/04/14 06:08:56;;;;;;;4.32;2.83;;;;;;;;;;5012085;28;20215;-84
2021/04/14 06:11:23;;;;;;;3.95;2.75;;;;;;;;;;5012833;28;20227;-84
2021/04/14 06:13:51;;;;;;;3.47;2.70;;;;;;;;;;5012381;28;20207;-84
2021/04/14 06:16:19;;;;;;;3.95;2.63;;;;;;;;;;5013618;28;20190;-85
2021/04/14 06:18:46;;;;;;;3.55;2.60;;;;;;;;;;5013514;28;20203;-84
2021/04/14 06:21:14;;;;;;;4.50;2.20;;;;;;;;;;5013218;28;20277;-84
2021/04/14 06:23:45;;;;;;;4.10;2.75;;;;;;;;;;5013529;28;20626;-84
2021/04/14 06:26:24;;;;;;;4.40;2.65;;;;;;;;;;5012935;28;20310;-84
2021/04/14 06:28:54;;;;;;;3.05;2.67;;;;;;;;;;5013660;28;20187;-85
2021/04/14 06:31:25;;;;;;;4.10;2.60;;;;;;;;;;5013729;28;20215;-84
2021/04/14 06:33:55;;;;;;;5.00;2.60;;;;;;;;;;5013789;28;20217;-84
2021/04/14 06:36:22;;;;;;;3.90;2.70;;;;;;;;;;5013270;28;20286;-84
2021/04/14 06:38:51;;;;;;;7.07;2.53;;;;;;;;;;5004918;28;20223;-84
2021/04/14 06:45:03;;;;;;;3.40;2.50;;;;;;;;;;4993745;28;20199;-85
2021/04/14 06:47:49;;;;;;;4.93;2.72;;;;;;;;;;4990455;28;20282;-85
2021/04/14 06:50:28;;;;;;;7.72;2.35;;;;;;;;;;4997560;28;20357;-85
2021/04/14 06:53:25;;;;;;;3.42;1.83;;;;;;;;;;4993022;28;20690;-85
2021/04/14 06:55:58;;;;;;;4.65;1.80;;;;;;;;;;4997241;28;20647;-85
2021/04/14 06:58:38;;;;;;;2.03;1.90;;;;;;;;;;4997944;28;20187;-85
2021/04/14 07:01:09;;;;;;;5.50;2.25;;;;;;;;;;4997339;28;20273;-85
2021/04/14 07:03:47;;;;;;;3.65;2.30;;;;;;;;;;4997927;28;20635;-85
2021/04/14 07:06:19;;;;;;;3.38;1.80;;;;;;;;;;4997813;28;20204;-86
2021/04/14 07:08:58;;;;;;;3.95;2.38;;;;;;;;;;4997792;28;20200;-86
2021/04/14 07:11:30;;;;;;;5.90;2.53;;;;;;;;;;4996829;28;20217;-87
2021/04/14 07:13:58;;;;;;;3.45;2.42;;;;;;;;;;4996922;28;20203;-85
2021/04/14 07:16:50;;;;;;;9.05;2.40;;;;;;;;;;4997483;28;20211;-85
2021/04/14 07:19:28;;;;;;;3.40;2.63;;;;;;;;;;4993725;28;20207;-86
2021/04/14 07:22:05;;;;;;;2.28;2.08;;;;;;;;;;4996900;28;20231;-85
2021/04/14 07:24:49;;;;;;;3.97;3.00;;;;;;;;;;4996389;28;20666;-85
2021/04/14 07:27:25;;;;;;;2.50;1.90;;;;;;;;;;4996173;28;20215;-85
2021/04/14 07:29:59;;;;;;;4.40;1.95;;;;;;;;;;4996555;28;20191;-86
2021/04/14 07:32:36;;;;;;;3.83;2.00;;;;;;;;;;4996439;28;20241;-85
2021/04/14 07:35:14;;;;;;;3.55;2.17;;;;;;;;;;4995124;28;20184;-85
2021/04/14 07:37:55;;;;;;;3.53;1.77;;;;;;;;;;4994982;28;20184;-85
2021/04/14 07:40:28;;;;;;;2.35;1.90;;;;;;;;;;4995148;28;20659;-85
2021/04/14 07:43:01;;;;;;;4.35;2.33;;;;;;;;;;4994921;28;20227;-85
2021/04/14 07:45:33;;;;;;;3.97;1.60;;;;;;;;;;4994968;28;20214;-86
2021/04/14 07:48:07;;;;;;;4.53;2.22;;;;;;;;;;4995496;28;20294;-85
2021/04/14 07:50:38;;;;;;;4.15;2.05;;;;;;;;;;4995752;28;20627;-85
2021/04/14 07:53:21;;;;;;;3.63;2.40;;;;;;;;;;4995192;28;20188;-85
2021/04/14 07:55:59;;;;;;;1.77;1.60;;;;;;;;;;4996099;28;20231;-85
2021/04/14 07:58:27;;;;;;;2.72;1.70;;;;;;;;;;4996076;28;20187;-86
2021/04/14 08:00:55;;;;;;;10.05;1.98;;;;;;;;;;4996171;28;20196;-86
2021/04/14 08:03:32;;;;;;;2.00;1.80;;;;;;;;;;4995960;28;20619;-85
2021/04/14 08:06:10;;;;;;;4.22;2.10;;;;;;;;;;4996192;28;20216;-85
2021/04/14 08:08:43;;;;;;;3.08;1.80;;;;;;;;;;4995579;28;20639;-86
2021/04/14 08:11:16;;;;;;;2.88;2.63;;;;;;;;;;4995908;28;20281;-85
2021/04/14 08:13:43;;;;;;;3.38;2.10;;;;;;;;;;4995688;28;20202;-85
2021/04/14 08:16:19;;;;;;;2.55;2.08;;;;;;;;;;4995211;28;20184;-85
2021/04/14 08:18:55;;;;;;;3.80;2.92;;;;;;;;;;4994428;28;20207;-85
2021/04/14 08:21:30;;;;;;;5.75;2.88;;;;;;;;;;4995539;28;20223;-86
2021/04/14 08:24:00;;;;;;;2.80;2.05;;;;;;;;;;4995371;28;20226;-86
2021/04/14 08:26:29;;;;;;;5.70;2.67;;;;;;;;;;4994165;28;20579;-87
2021/04/14 08:29:09;;;;;;;4.40;2.50;;;;;;;;;;4994626;28;20187;-87
2021/04/14 08:31:47;;;;;;;4.97;2.70;;;;;;;;;;4994766;28;20227;-87
2021/04/14 08:34:22;;;;;;;2.30;2.10;;;;;;;;;;4994017;28;20258;-88
2021/04/14 08:36:57;;;;;;;2.13;1.92;;;;;;;;;;4993693;28;20728;-86
2021/04/14 08:39:29;;;;;;;4.57;2.25;;;;;;;;;;5006778;28;20887;-88
2021/04/14 08:42:12;;;;;;;2.13;1.90;;;;;;;;;;5013805;28;20231;-87
2021/04/14 08:44:42;;;;;;;4.95;2.20;;;;;;;;;;5012490;28;20195;-87
2021/04/14 08:47:26;;;;;;;4.07;1.80;;;;;;;;;;5013142;28;20227;-87
2021/04/14 08:49:59;;;;;;;1.85;1.48;;;;;;;;;;5013324;28;20218;-86
2021/04/14 08:52:26;;;;;;;7.25;2.28;;;;;;;;;;5013123;28;20226;-87
2021/04/14 08:54:54;;;;;;;3.22;2.05;;;;;;;;;;5013222;28;20550;-87
2021/04/14 08:57:22;;;;;;;2.38;1.88;;;;;;;;;;5013481;28;20198;-86
2021/04/14 08:59:49;;;;;;;3.05;1.45;;;;;;;;;;5013599;28;20209;-86
2021/04/14 09:02:19;;;;;;;2.30;1.60;;;;;;;;;;5013247;28;20227;-87
2021/04/14 09:04:48;;;;;;;3.30;1.50;;;;;;;;;;5012249;28;20196;-86
2021/04/14 09:07:21;;;;;;;2.40;1.73;;;;;;;;;;5012783;28;20218;-86
2021/04/14 09:09:52;;;;;;;7.93;1.60;;;;;;;;;;5013596;28;20203;-87
2021/04/14 09:12:19;;;;;;;3.78;1.92;;;;;;;;;;5013123;28;20634;-87
2021/04/14 09:14:45;;;;;;;3.45;1.85;;;;;;;;;;5011638;28;20207;-86
2021/04/14 09:17:19;;;;;;;3.42;2.03;;;;;;;;;;5012073;28;20252;-86
2021/04/14 09:19:47;;;;;;;2.63;2.00;;;;;;;;;;5012968;28;20203;-86
2021/04/14 09:22:23;;;;;;;2.65;1.98;;;;;;;;;;5012740;28;20234;-87
2021/04/14 09:24:52;;;;;;;3.53;2.53;;;;;;;;;;5012933;28;20244;-86
2021/04/14 09:27:50;;;;;;;6.72;1.98;;;;;;;;;;5012838;28;20623;-86
2021/04/14 09:30:31;;;;;;;4.93;2.20;;;;;;;;;;4993593;28;20725;-87
2021/04/14 09:33:15;;;;;;;3.15;2.63;;;;;;;;;;5012862;28;20277;-87
2021/04/14 09:36:02;;;;;;;2.78;2.42;;;;;;;;;;5012750;28;20191;-87
2021/04/14 09:38:36;;;;;;;2.85;2.30;;;;;;;;;;5012445;28;20632;-86
2021/04/14 09:41:36;;;;;;;4.07;2.15;;;;;;;;;;5012810;28;20231;-86
2021/04/14 09:44:18;;;;;;;3.13;1.30;;;;;;;;;;5011967;28;20689;-87
2021/04/14 09:46:57;;;;;;;2.22;1.40;;;;;;;;;;5011889;28;20223;-86
2021/04/14 09:49:37;;;;;;;2.13;1.33;;;;;;;;;;5012720;28;20191;-86
2021/04/14 09:52:21;;;;;;;3.10;1.70;;;;;;;;;;5012558;28;20218;-87
2021/04/14 09:54:51;;;;;;;1.88;1.48;;;;;;;;;;5012537;28;20579;-87
2021/04/14 09:57:23;;;;;;;4.15;1.58;;;;;;;;;;5011642;28;20191;-86
2021/04/14 09:59:51;;;;;;;3.78;1.67;;;;;;;;;;5008817;28;20206;-86
2021/04/14 10:02:21;;;;;;;1.38;1.23;;;;;;;;;;5010899;28;20231;-88
2021/04/14 10:04:49;;;;;;;1.40;1.30;;;;;;;;;;5013065;28;20195;-86
2021/04/14 10:07:21;;;;;;;2.30;1.20;;;;;;;;;;5011543;28;20588;-85
2021/04/14 10:09:49;;;;;;;1.77;1.40;;;;;;;;;;5011720;28;20282;-86
2021/04/14 10:12:19;;;;;;;1.38;1.27;;;;;;;;;;5011402;28;20211;-87
2021/04/14 10:14:48;;;;;;;2.10;1.63;;;;;;;;;;5011975;28;20195;-86
2021/04/14 10:17:17;;;;;;;2.10;1.90;;;;;;;;;;5015127;28;20669;-87
2021/04/14 10:19:44;;;;;;;1.98;1.88;;;;;;;;;;5014848;28;20207;-85
2021/04/14 10:22:19;;;;;;;3.45;1.90;;;;;;;;;;5014994;28;20215;-86
2021/04/14 10:24:47;;;;;;;2.00;1.80;;;;;;;;;;5009497;28;20202;-85
2021/04/14 10:27:21;;;;;;;3.60;1.83;;;;;;;;;;5015463;28;20219;-87
2021/04/14 10:29:48;;;;;;;2.72;1.70;;;;;;;;;;5013949;28;20192;-86
2021/04/14 10:32:17;;;;;;;8.38;3.20;;;;;;;;;;5015307;28;20620;-87
2021/04/14 10:34:46;;;;;;;1.65;1.40;;;;;;;;;;5012915;28;20202;-87
2021/04/14 10:37:15;;;;;;;1.50;1.40;;;;;;;;;;5015866;28;20191;-87
2021/04/14 10:39:43;;;;;;;1.50;1.40;;;;;;;;;;5000791;28;20227;-88
2021/04/14 10:42:19;;;;;;;1.38;1.27;;;;;;;;;;4996560;28;20319;-86
2021/04/14 10:44:47;;;;;;;3.05;1.55;;;;;;;;;;4995991;28;20618;-87
2021/04/14 10:47:19;;;;;;;2.20;1.25;;;;;;;;;;4995822;28;20297;-87
2021/04/14 10:49:47;;;;;;;1.17;1.08;;;;;;;;;;4996354;28;20188;-88
2021/04/14 10:52:22;;;;;;;0.82;0.82;;;;;;;;;;4996293;28;20230;-86
2021/04/14 10:54:52;;;;;;;3.10;1.73;;;;;;;;;;4996293;28;20722;-87
2021/04/14 10:57:27;;;;;;;0.88;0.88;;;;;;;;;;4995942;28;20214;-87
2021/04/14 11:00:00;;;;;;;1.77;0.88;;;;;;;;;;4994811;28;20206;-87
2021/04/14 11:02:28;;;;;;;1.50;0.90;;;;;;;;;;4996041;28;20223;-87
2021/04/14 11:04:56;;;;;;;0.90;0.90;;;;;;;;;;4996313;28;20188;-85
2021/04/14 11:07:25;;;;;;;0.90;0.70;;;;;;;;;;4996061;28;20211;-86
2021/04/14 11:09:54;;;;;;;3.80;1.60;;;;;;;;;;4995990;28;20204;-87
2021/04/14 11:12:24;;;;;;;1.35;0.80;;;;;;;;;;4996176;28;20753;-86
2021/04/14 11:14:53;;;;;;;1.02;0.90;;;;;;;;;;4994358;28;20192;-86
2021/04/14 11:17:24;;;;;;;1.27;0.90;;;;;;;;;;4994637;28;20734;-86
2021/04/14 11:19:57;;;;;;;1.02;0.93;;;;;;;;;;4994955;28;20192;-87
2021/04/14 11:22:25;;;;;;;1.50;1.00;;;;;;;;;;4995716;28;20215;-88
2021/04/14 11:24:54;;;;;;;1.40;1.00;;;;;;;;;;4995669;28;20690;-86
2021/04/14 11:27:25;;;;;;;1.60;1.13;;;;;;;;;;4993215;28;20204;-86
2021/04/14 11:30:04;;;;;;;6.32;0.90;;;;;;;;;;4994456;28;20232;-85
2021/04/14 11:32:31;;;;;;;1.13;0.90;;;;;;;;;;4992550;28;20211;-86
2021/04/14 11:35:00;;;;;;;3.08;1.20;;;;;;;;;;4993907;28;20670;-86
2021/04/14 11:37:43;;;;;;;0.95;0.93;;;;;;;;;;4993660;28;20188;-86
2021/04/14 11:40:40;;;;;;;2.90;1.77;;;;;;;;;;4992114;28;20658;-86
2021/04/14 11:43:31;;;;;;;1.67;1.13;;;;;;;;;;4992745;28;20203;-87
2021/04/14 11:46:03;;;;;;;1.75;1.10;;;;;;;;;;4993512;28;20203;-87
2021/04/14 11:48:39;;;;;;;2.63;1.55;;;;;;;;;;4993486;28;20651;-87
2021/04/14 11:51:29;;;;;;;2.00;1.30;;;;;;;;;;4991727;28;20661;-86
2021/04/14 11:54:02;;;;;;;2.45;1.48;;;;;;;;;;4993041;28;20823;-87
2021/04/14 11:56:40;;;;;;;2.55;1.33;;;;;;;;;;4991713;28;20188;-86
2021/04/14 11:59:25;;;;;;;3.22;1.20;;;;;;;;;;4991788;28;20618;-87
2021/04/14 12:01:59;;;;;;;2.08;1.17;;;;;;;;;;4990922;28;20263;-87
2021/04/14 12:04:27;;;;;;;1.13;1.02;;;;;;;;;;4988888;28;20202;-87
2021/04/14 12:06:54;;;;;;;1.20;1.08;;;;;;;;;;4992971;28;20211;-87
2021/04/14 12:09:21;;;;;;;3.08;1.08;;;;;;;;;;4993588;28;20247;-86
2021/04/14 12:11:59;;;;;;;1.95;1.20;;;;;;;;;;4994595;28;20226;-86
2021/04/14 12:14:27;;;;;;;2.25;1.08;;;;;;;;;;4995079;28;20194;-87
2021/04/14 12:16:54;;;;;;;0.88;0.88;;;;;;;;;;4994271;28;20245;-86
2021/04/14 12:19:22;;;;;;;1.00;0.85;;;;;;;;;;4993383;28;20247;-87
2021/04/14 12:21:49;;;;;;;0.75;0.75;;;;;;;;;;4993047;28;20730;-86
2021/04/14 12:24:16;;;;;;;2.50;0.77;;;;;;;;;;4992524;28;20286;-86
2021/04/14 12:26:43;;;;;;;0.82;0.82;;;;;;;;;;4992732;28;20179;-87
2021/04/14 12:29:10;;;;;;;1.38;1.00;;;;;;;;;;4974628;28;20210;-86
2021/04/14 12:31:38;;;;;;;1.88;1.60;;;;;;;;;;4974630;28;20224;-86
2021/04/14 12:34:07;;;;;;;1.73;1.48;;;;;;;;;;4974907;28;20226;-86
2021/04/14 12:36:35;;;;;;;1.85;1.40;;;;;;;;;;4974641;28;20239;-86
2021/04/14 12:39:03;;;;;;;1.30;1.13;;;;;;;;;;5002338;28;20221;-85
2021/04/14 12:41:30;;;;;;;1.90;1.30;;;;;;;;;;5023114;28;20222;-86
2021/04/14 12:43:57;;;;;;;1.30;1.20;;;;;;;;;;5021766;28;20187;-87
2021/04/14 12:46:24;;;;;;;1.52;1.23;;;;;;;;;;5020488;28;20191;-87
2021/04/14 12:48:52;;;;;;;2.53;1.30;;;;;;;;;;5022883;28;20244;-86
2021/04/14 12:51:27;;;;;;;1.70;1.52;;;;;;;;;;5016736;28;20258;-85
2021/04/14 12:54:07;;;;;;;2.53;1.33;;;;;;;;;;5020911;28;20202;-86
2021/04/14 12:56:37;;;;;;;1.42;1.33;;;;;;;;;;5020302;28;20202;-86
2021/04/14 12:59:08;;;;;;;1.63;1.10;;;;;;;;;;5021002;28;20206;-86
2021/04/14 13:01:36;;;;;;;1.25;1.00;;;;;;;;;;5021561;28;20221;-86
2021/04/14 13:04:10;;;;;;;2.22;1.10;;;;;;;;;;5029992;28;20199;-86
2021/04/14 13:06:43;;;;;;;1.67;1.30;;;;;;;;;;5028557;28;20179;-86
2021/04/14 13:09:12;;;;;;;1.83;1.38;;;;;;;;;;5013457;28;20217;-86
2021/04/14 13:11:42;;;;;;;5.35;1.40;;;;;;;;;;5013061;28;20215;-87
2021/04/14 13:14:10;;;;;;;1.95;1.25;;;;;;;;;;5013402;28;20198;-87
2021/04/14 13:16:44;;;;;;;4.40;1.73;;;;;;;;;;5012938;28;20253;-86
2021/04/14 13:19:12;;;;;;;2.22;0.98;;;;;;;;;;5012529;28;20207;-86
2021/04/14 13:21:46;;;;;;;2.72;1.10;;;;;;;;;;5013415;28;20219;-86
2021/04/14 13:24:25;;;;;;;0.77;0.77;;;;;;;;;;5012734;28;20661;-86
2021/04/14 13:27:03;;;;;;;2.15;1.38;;;;;;;;;;5012758;28;20203;-87
2021/04/14 13:29:33;;;;;;;3.55;1.08;;;;;;;;;;5012736;28;20766;-86
2021/04/14 13:32:10;;;;;;;1.95;0.90;;;;;;;;;;5012465;28;20754;-86
2021/04/14 13:34:46;;;;;;;2.00;1.20;;;;;;;;;;5012602;28;20187;-86
2021/04/14 13:37:15;;;;;;;2.30;1.10;;;;;;;;;;5012371;28;20191;-87
2021/04/14 13:39:46;;;;;;;1.40;1.00;;;;;;;;;;5012322;28;20768;-86
2021/04/14 13:42:18;;;;;;;2.25;1.00;;;;;;;;;;5012637;28;20225;-86
2021/04/14 13:45:03;;;;;;;1.10;0.93;;;;;;;;;;5012658;28;20211;-87
2021/04/14 13:47:39;;;;;;;1.85;1.17;;;;;;;;;;5012601;28;20669;-85
2021/04/14 13:50:12;;;;;;;0.82;0.82;;;;;;;;;;5011905;28;20206;-85
2021/04/14 13:52:40;;;;;;;1.42;1.15;;;;;;;;;;5012310;28;20715;-86
2021/04/14 13:55:08;;;;;;;1.92;1.42;;;;;;;;;;5011682;28;20206;-86
2021/04/14 13:57:40;;;;;;;1.42;1.00;;;;;;;;;;5012436;28;20195;-86
2021/04/14 14:00:14;;;;;;;2.47;1.30;;;;;;;;;;5012278;28;20195;-86
2021/04/14 14:02:44;;;;;;;1.13;0.95;;;;;;;;;;5012369;28;20218;-87
2021/04/14 14:05:16;;;;;;;1.48;0.90;;;;;;;;;;5011909;28;20206;-86
2021/04/14 14:07:47;;;;;;;1.20;1.10;;;;;;;;;;5011867;28;20234;-86
2021/04/14 14:10:23;;;;;;;1.08;0.85;;;;;;;;;;5012219;28;20604;-86
2021/04/14 14:13:01;;;;;;;3.10;2.35;;;;;;;;;;5012281;28;20227;-86
2021/04/14 14:15:30;;;;;;;1.25;1.15;;;;;;;;;;5012134;28;20681;-86
2021/04/14 14:17:57;;;;;;;2.10;1.20;;;;;;;;;;5011970;28;20210;-87
2021/04/14 14:20:29;;;;;;;1.23;0.90;;;;;;;;;;5012278;28;20541;-86
2021/04/14 14:23:04;;;;;;;1.38;1.10;;;;;;;;;;5011990;28;20234;-86
2021/04/14 14:25:31;;;;;;;1.60;1.20;;;;;;;;;;5012593;28;20213;-86
2021/04/14 14:27:59;;;;;;;2.15;1.30;;;;;;;;;;5012554;28;20597;-86
2021/04/14 14:30:27;;;;;;;1.70;1.60;;;;;;;;;;5012148;28;20211;-87
2021/04/14 14:32:55;;;;;;;1.48;1.17;;;;;;;;;;5012199;28;20580;-86
2021/04/14 14:35:24;;;;;;;2.10;1.40;;;;;;;;;;5011862;28;20219;-86
2021/04/14 14:37:57;;;;;;;5.00;1.67;;;;;;;;;;5011893;28;20210;-86
2021/04/14 14:40:27;;;;;;;1.45;1.35;;;;;;;;;;5012536;28;20266;-86
2021/04/14 14:42:57;;;;;;;2.05;1.45;;;;;;;;;;5011711;28;20223;-87
2021/04/14 14:45:29;;;;;;;1.30;1.15;;;;;;;;;;5011712;28;20199;-86
2021/04/14 14:48:00;;;;;;;1.40;1.30;;;;;;;;;;5012174;28;20293;-86
2021/04/14 14:50:32;;;;;;;1.35;1.25;;;;;;;;;;5012012;28;20215;-86
2021/04/14 14:53:00;;;;;;;1.30;1.25;;;;;;;;;;5011775;28;20280;-86
2021/04/14 14:55:28;;;;;;;1.42;1.30;;;;;;;;;;5011573;28;20700;-87
2021/04/14 14:58:02;;;;;;;1.52;1.42;;;;;;;;;;5012243;28;20211;-86
2021/04/14 15:00:30;;;;;;;1.50;1.30;;;;;;;;;;5012225;28;20197;-86
2021/04/14 15:02:57;;;;;;;1.25;1.20;;;;;;;;;;5015640;28;20223;-88
2021/04/14 15:05:24;;;;;;;1.45;1.35;;;;;;;;;;5014512;28;20207;-87
2021/04/14 15:07:51;;;;;;;2.63;1.58;;;;;;;;;;5015333;28;20203;-86